FNLUHKNW

Guest
Details From FNLU - Luanda 4 De Fevereiro
To HKNW - Nairobi Wilson
Flight Number -
Tags Generated
Created
Modified
Stats Distance 1,481 nm / 2,742 km
Max Altitude 0 ft / 0 m
Waypoints 4
Social Downloads 0
Likes 0
Share VATSIM

Download

Looking for another format? Having issues loading an existing format? Contact us
Advertisement - Login to hide

Notes

Generated

Route

FNLU MZ GG HKNW

ID Type Via Altitude (ft/m) Position (lat/lon) Dist (leg/tot) Name
O FNLU APT - 0 / 0 -8.85561 / 13.22570 - / 0 nm LUANDA 4 DE FEVEREIRO
MZ NDB - 0 / 0 -2.44219 / 32.92394 1238 / 1238 nm MWANZA NDB
GG NDB - 0 / 0 -1.39038 / 36.63786 231 / 1469 nm NGONG NDB
O HKNW APT - 0 / 0 -1.32485 / 36.80633 10 / 1480 nm NAIROBI WILSON

Altitude Profile

Advertisement - Login to hide

Weather


0- 5 10 15 20 25 30 35+ Temperature / °C

Clouds and Precipitation
Forecast for 2018-10-20 12:00 UTC. Updated 4 hours ago

Ground ~20,000 ft ~40,000 ft Winds

FNLU

Details ICAO FNLU (LAD)
Name LUANDA 4 DE FEVEREIRO
Region Angola
Timezone Africa/Luanda (UTC+1.0)
Stats Elevation 243 ft / 74 m (AMSL)
Location -8.858340° 13.231100°
Runways 2
Magnetic Variation 3.338° W

METAR

FNLU 201200Z 27012KT 9999 SCT021 29/23 Q1009 NOSIG

Decode

TAF

TAF FNLU 201045Z 2012/2118 18006KT 9000 BKN022 TEMPO 2013/2017 24010KT 9999 FEW020 SCT022 BECMG 2018/2020 17008KT 9000 FEW020 TEMPO 2023/2103 VRB03KT 7000 -DZRA BKN022

Decode

Departure Runways

ID Width Length Bearing (true/mag) Surface Threshold Overrun Markings Lighting
05 148 ft / 45 m 12,151 ft / 3,704 m 46.59° / 49.93° ASPHALT 0 ft / 0 m 0 ft / 0 m PREC-APP CENTERLINE EDGE THRESHOLD ALSF-I
07 148 ft / 45 m 8,210 ft / 2,502 m 67.54° / 70.88° ASPHALT 0 ft / 0 m 0 ft / 0 m APP EDGE THRESHOLD
23 148 ft / 45 m 12,151 ft / 3,704 m 226.59° / 229.92° ASPHALT 492 ft / 150 m 0 ft / 0 m PREC-APP CENTERLINE EDGE THRESHOLD CALVERT
25 148 ft / 45 m 8,210 ft / 2,502 m 247.54° / 250.87° ASPHALT 0 ft / 0 m 0 ft / 0 m APP EDGE THRESHOLD

HKNW

Details ICAO HKNW (WIL)
Name NAIROBI WILSON
Region Kenya
Timezone Africa/Nairobi (UTC+3.0)
Stats Elevation 5,546 ft / 1,690 m (AMSL)
Location -1.323150° 36.814700°
Runways 2
Magnetic Variation 0.628° E

METAR

HKNW 201200Z 05007KT 9999 SCT029 BKN270 27/09 Q1019

Decode

TAF

Not found

Destination Runways

ID Width Length Bearing (true/mag) Surface Threshold Overrun Markings Lighting
07 72 ft / 22 m 4,799 ft / 1,463 m 69.77° / 69.14° ASPHALT 0 ft / 0 m 0 ft / 0 m APP EDGE THRESHOLD
14 76 ft / 23 m 5,065 ft / 1,544 m 134.15° / 133.52° ASPHALT 0 ft / 0 m 0 ft / 0 m APP
25 72 ft / 22 m 4,799 ft / 1,463 m 249.77° / 249.14° ASPHALT 0 ft / 0 m 0 ft / 0 m APP EDGE THRESHOLD
32 76 ft / 23 m 5,065 ft / 1,544 m 314.15° / 313.52° ASPHALT 0 ft / 0 m 0 ft / 0 m APP